sensor_id;sensor_type;location;lat;lon;timestamp;temperature;humidity
4795;DHT22;2411;47.060;15.064;2023-05-24T00:00:20;14.50;98.40
4795;DHT22;2411;47.060;15.064;2023-05-24T00:02:48;14.50;94.30
4795;DHT22;2411;47.060;15.064;2023-05-24T00:05:15;14.60;88.30
4795;DHT22;2411;47.060;15.064;2023-05-24T00:07:44;14.50;93.90
4795;DHT22;2411;47.060;15.064;2023-05-24T00:10:12;14.50;96.70
4795;DHT22;2411;47.060;15.064;2023-05-24T00:12:39;14.50;99.90
4795;DHT22;2411;47.060;15.064;2023-05-24T00:15:07;14.50;91.70
4795;DHT22;2411;47.060;15.064;2023-05-24T00:17:34;14.50;99.90
4795;DHT22;2411;47.060;15.064;2023-05-24T00:20:11;14.40;99.90
4795;DHT22;2411;47.060;15.064;2023-05-24T00:22:39;14.50;99.90
4795;DHT22;2411;47.060;15.064;2023-05-24T00:25:07;14.40;99.90
4795;DHT22;2411;47.060;15.064;2023-05-24T00:27:35;14.40;99.90
4795;DHT22;2411;47.060;15.064;2023-05-24T00:30:04;14.30;99.90
4795;DHT22;2411;47.060;15.064;2023-05-24T00:32:32;14.30;99.90
4795;DHT22;2411;47.060;15.064;2023-05-24T00:34:59;14.30;99.90
4795;DHT22;2411;47.060;15.064;2023-05-24T00:37:27;14.30;99.90
4795;DHT22;2411;47.060;15.064;2023-05-24T00:39:55;14.40;98.00
4795;DHT22;2411;47.060;15.064;2023-05-24T00:42:22;14.40;74.20
4795;DHT22;2411;47.060;15.064;2023-05-24T00:44:50;14.40;88.90
4795;DHT22;2411;47.060;15.064;2023-05-24T00:47:17;14.40;88.70
4795;DHT22;2411;47.060;15.064;2023-05-24T00:49:45;14.40;84.30
4795;DHT22;2411;47.060;15.064;2023-05-24T00:52:13;14.40;90.50
4795;DHT22;2411;47.060;15.064;2023-05-24T00:54:40;14.40;88.30
4795;DHT22;2411;47.060;15.064;2023-05-24T00:57:08;14.30;92.90
4795;DHT22;2411;47.060;15.064;2023-05-24T00:59:35;14.30;94.70
4795;DHT22;2411;47.060;15.064;2023-05-24T01:02:03;14.30;93.90
4795;DHT22;2411;47.060;15.064;2023-05-24T01:04:30;14.30;96.20
4795;DHT22;2411;47.060;15.064;2023-05-24T01:12:25;14.20;99.90
4795;DHT22;2411;47.060;15.064;2023-05-24T01:15:24;14.20;99.90
4795;DHT22;2411;47.060;15.064;2023-05-24T01:20:35;14.20;99.90
4795;DHT22;2411;47.060;15.064;2023-05-24T01:23:17;14.20;99.90
4795;DHT22;2411;47.060;15.064;2023-05-24T01:28:50;14.20;99.90
4795;DHT22;2411;47.060;15.064;2023-05-24T01:31:19;14.20;99.90
4795;DHT22;2411;47.060;15.064;2023-05-24T01:33:47;14.20;99.90
4795;DHT22;2411;47.060;15.064;2023-05-24T01:36:14;14.20;99.90
4795;DHT22;2411;47.060;15.064;2023-05-24T01:38:42;14.10;99.90
4795;DHT22;2411;47.060;15.064;2023-05-24T01:46:40;14.10;99.90
4795;DHT22;2411;47.060;15.064;2023-05-24T01:49:21;14.10;99.90
4795;DHT22;2411;47.060;15.064;2023-05-24T01:52:06;14.10;99.90
4795;DHT22;2411;47.060;15.064;2023-05-24T01:54:38;14.00;99.90
4795;DHT22;2411;47.060;15.064;2023-05-24T01:57:08;14.00;99.90
4795;DHT22;2411;47.060;15.064;2023-05-24T01:59:39;13.90;99.90
4795;DHT22;2411;47.060;15.064;2023-05-24T02:02:09;13.90;99.90
4795;DHT22;2411;47.060;15.064;2023-05-24T02:04:37;13.90;99.90
4795;DHT22;2411;47.060;15.064;2023-05-24T02:07:04;13.90;99.90
4795;DHT22;2411;47.060;15.064;2023-05-24T02:09:32;13.90;99.90
4795;DHT22;2411;47.060;15.064;2023-05-24T02:11:59;13.90;99.90
4795;DHT22;2411;47.060;15.064;2023-05-24T02:14:27;13.90;99.90
4795;DHT22;2411;47.060;15.064;2023-05-24T02:16:54;13.80;99.90
4795;DHT22;2411;47.060;15.064;2023-05-24T02:19:25;13.80;99.90
4795;DHT22;2411;47.060;15.064;2023-05-24T02:21:52;13.80;99.90
4795;DHT22;2411;47.060;15.064;2023-05-24T02:24:20;13.80;99.90
4795;DHT22;2411;47.060;15.064;2023-05-24T02:26:47;13.80;99.90
4795;DHT22;2411;47.060;15.064;2023-05-24T02:29:15;13.90;99.90
4795;DHT22;2411;47.060;15.064;2023-05-24T02:31:42;13.80;99.90
4795;DHT22;2411;47.060;15.064;2023-05-24T02:34:09;13.80;99.90
4795;DHT22;2411;47.060;15.064;2023-05-24T02:36:37;13.80;99.90
4795;DHT22;2411;47.060;15.064;2023-05-24T02:39:04;13.80;99.90
4795;DHT22;2411;47.060;15.064;2023-05-24T02:41:32;13.80;99.90
4795;DHT22;2411;47.060;15.064;2023-05-24T02:43:59;13.70;99.90
4795;DHT22;2411;47.060;15.064;2023-05-24T02:46:26;13.70;99.90
4795;DHT22;2411;47.060;15.064;2023-05-24T02:48:54;13.70;99.90
4795;DHT22;2411;47.060;15.064;2023-05-24T02:51:21;13.70;99.90
4795;DHT22;2411;47.060;15.064;2023-05-24T02:53:48;13.70;99.90
4795;DHT22;2411;47.060;15.064;2023-05-24T02:56:16;13.70;99.90
4795;DHT22;2411;47.060;15.064;2023-05-24T02:58:43;13.70;99.90
4795;DHT22;2411;47.060;15.064;2023-05-24T03:01:12;13.70;99.90
4795;DHT22;2411;47.060;15.064;2023-05-24T03:03:39;13.70;99.90
4795;DHT22;2411;47.060;15.064;2023-05-24T03:06:07;13.70;99.90
4795;DHT22;2411;47.060;15.064;2023-05-24T03:08:34;13.70;99.90
4795;DHT22;2411;47.060;15.064;2023-05-24T03:11:03;13.70;99.90
4795;DHT22;2411;47.060;15.064;2023-05-24T03:13:30;13.80;99.90
4795;DHT22;2411;47.060;15.064;2023-05-24T03:15:58;13.80;99.90
4795;DHT22;2411;47.060;15.064;2023-05-24T03:18:25;13.70;99.90
4795;DHT22;2411;47.060;15.064;2023-05-24T03:20:52;13.70;99.90
4795;DHT22;2411;47.060;15.064;2023-05-24T03:23:19;13.70;99.90
4795;DHT22;2411;47.060;15.064;2023-05-24T03:25:47;13.70;99.90
4795;DHT22;2411;47.060;15.064;2023-05-24T03:28:14;13.70;99.90
4795;DHT22;2411;47.060;15.064;2023-05-24T03:30:42;13.80;99.90
4795;DHT22;2411;47.060;15.064;2023-05-24T03:33:09;13.80;99.90
4795;DHT22;2411;47.060;15.064;2023-05-24T03:35:37;13.80;99.90
4795;DHT22;2411;47.060;15.064;2023-05-24T03:38:04;13.80;99.90
4795;DHT22;2411;47.060;15.064;2023-05-24T03:40:31;13.70;99.90
4795;DHT22;2411;47.060;15.064;2023-05-24T03:42:59;13.70;99.90
4795;DHT22;2411;47.060;15.064;2023-05-24T03:45:30;13.80;99.90
4795;DHT22;2411;47.060;15.064;2023-05-24T03:48:06;13.80;99.90
4795;DHT22;2411;47.060;15.064;2023-05-24T03:50:33;13.70;99.90
4795;DHT22;2411;47.060;15.064;2023-05-24T03:53:01;13.80;99.90
4795;DHT22;2411;47.060;15.064;2023-05-24T03:55:29;13.80;99.90
4795;DHT22;2411;47.060;15.064;2023-05-24T03:57:56;13.80;99.90
4795;DHT22;2411;47.060;15.064;2023-05-24T04:00:23;13.80;99.90
4795;DHT22;2411;47.060;15.064;2023-05-24T04:02:51;13.90;99.90
4795;DHT22;2411;47.060;15.064;2023-05-24T04:05:19;13.90;99.90
4795;DHT22;2411;47.060;15.064;2023-05-24T04:07:46;13.90;99.90
4795;DHT22;2411;47.060;15.064;2023-05-24T04:10:14;13.80;99.90
4795;DHT22;2411;47.060;15.064;2023-05-24T04:12:44;13.80;99.90
4795;DHT22;2411;47.060;15.064;2023-05-24T04:15:29;13.80;99.90
4795;DHT22;2411;47.060;15.064;2023-05-24T04:17:57;13.80;99.90
4795;DHT22;2411;47.060;15.064;2023-05-24T04:20:26;13.80;99.90
4795;DHT22;2411;47.060;15.064;2023-05-24T04:22:55;13.90;99.90
4795;DHT22;2411;47.060;15.064;2023-05-24T04:25:22;13.80;99.90
4795;DHT22;2411;47.060;15.064;2023-05-24T04:27:49;13.90;99.90
4795;DHT22;2411;47.060;15.064;2023-05-24T04:30:17;13.90;99.90
4795;DHT22;2411;47.060;15.064;2023-05-24T04:32:44;13.90;99.90
4795;DHT22;2411;47.060;15.064;2023-05-24T04:35:12;14.00;99.90
4795;DHT22;2411;47.060;15.064;2023-05-24T04:37:40;14.00;99.90
4795;DHT22;2411;47.060;15.064;2023-05-24T04:40:07;14.10;99.90
4795;DHT22;2411;47.060;15.064;2023-05-24T04:42:35;14.10;99.90
4795;DHT22;2411;47.060;15.064;2023-05-24T04:45:03;14.10;99.90
4795;DHT22;2411;47.060;15.064;2023-05-24T04:47:30;14.10;99.90
4795;DHT22;2411;47.060;15.064;2023-05-24T04:49:57;14.10;99.90
4795;DHT22;2411;47.060;15.064;2023-05-24T04:52:25;14.10;99.90
4795;DHT22;2411;47.060;15.064;2023-05-24T04:54:52;14.10;99.90
4795;DHT22;2411;47.060;15.064;2023-05-24T04:57:21;14.10;99.90
4795;DHT22;2411;47.060;15.064;2023-05-24T04:59:48;14.20;99.90
4795;DHT22;2411;47.060;15.064;2023-05-24T05:02:15;14.20;99.90
4795;DHT22;2411;47.060;15.064;2023-05-24T05:04:43;14.20;99.90
4795;DHT22;2411;47.060;15.064;2023-05-24T05:07:10;14.20;99.90
4795;DHT22;2411;47.060;15.064;2023-05-24T05:09:38;14.20;99.90
4795;DHT22;2411;47.060;15.064;2023-05-24T05:12:05;14.30;99.90
4795;DHT22;2411;47.060;15.064;2023-05-24T05:14:33;14.30;99.90
4795;DHT22;2411;47.060;15.064;2023-05-24T05:17:00;14.40;99.90
4795;DHT22;2411;47.060;15.064;2023-05-24T05:19:27;14.40;99.90
4795;DHT22;2411;47.060;15.064;2023-05-24T05:21:55;14.40;99.90
4795;DHT22;2411;47.060;15.064;2023-05-24T05:24:22;14.40;99.90
4795;DHT22;2411;47.060;15.064;2023-05-24T05:26:49;14.40;99.90
4795;DHT22;2411;47.060;15.064;2023-05-24T05:29:17;14.40;99.90
4795;DHT22;2411;47.060;15.064;2023-05-24T05:31:45;14.40;99.90
4795;DHT22;2411;47.060;15.064;2023-05-24T05:34:12;14.50;99.90
4795;DHT22;2411;47.060;15.064;2023-05-24T05:36:40;14.40;99.90
4795;DHT22;2411;47.060;15.064;2023-05-24T05:39:08;14.40;99.90
4795;DHT22;2411;47.060;15.064;2023-05-24T05:41:38;14.40;99.90
4795;DHT22;2411;47.060;15.064;2023-05-24T05:44:05;14.50;99.90
4795;DHT22;2411;47.060;15.064;2023-05-24T05:46:33;14.50;99.90
4795;DHT22;2411;47.060;15.064;2023-05-24T05:49:00;14.50;99.90
4795;DHT22;2411;47.060;15.064;2023-05-24T05:51:28;14.60;99.90
4795;DHT22;2411;47.060;15.064;2023-05-24T05:53:55;14.60;99.90
4795;DHT22;2411;47.060;15.064;2023-05-24T05:56:22;14.70;99.90
4795;DHT22;2411;47.060;15.064;2023-05-24T05:58:50;14.70;99.90
4795;DHT22;2411;47.060;15.064;2023-05-24T06:01:17;14.70;99.90
4795;DHT22;2411;47.060;15.064;2023-05-24T06:03:44;14.80;99.90
4795;DHT22;2411;47.060;15.064;2023-05-24T06:06:12;14.90;99.90
4795;DHT22;2411;47.060;15.064;2023-05-24T06:08:39;14.90;99.90
4795;DHT22;2411;47.060;15.064;2023-05-24T06:11:07;15.00;99.90
4795;DHT22;2411;47.060;15.064;2023-05-24T06:13:34;15.00;99.90
4795;DHT22;2411;47.060;15.064;2023-05-24T06:16:01;15.00;99.90
4795;DHT22;2411;47.060;15.064;2023-05-24T06:18:29;15.10;98.90
4795;DHT22;2411;47.060;15.064;2023-05-24T06:20:58;15.10;99.30
4795;DHT22;2411;47.060;15.064;2023-05-24T06:23:25;15.10;98.40
4795;DHT22;2411;47.060;15.064;2023-05-24T06:25:52;15.20;96.70
4795;DHT22;2411;47.060;15.064;2023-05-24T06:28:20;15.20;98.70
4795;DHT22;2411;47.060;15.064;2023-05-24T06:30:48;15.20;99.90
4795;DHT22;2411;47.060;15.064;2023-05-24T06:33:15;15.30;99.90
4795;DHT22;2411;47.060;15.064;2023-05-24T06:35:43;15.30;99.70
4795;DHT22;2411;47.060;15.064;2023-05-24T06:38:10;15.30;98.20
4795;DHT22;2411;47.060;15.064;2023-05-24T06:40:37;15.40;97.60
4795;DHT22;2411;47.060;15.064;2023-05-24T06:43:05;15.50;92.70
4795;DHT22;2411;47.060;15.064;2023-05-24T06:45:32;15.50;83.20
4795;DHT22;2411;47.060;15.064;2023-05-24T06:47:59;15.60;84.30
4795;DHT22;2411;47.060;15.064;2023-05-24T06:50:27;15.60;80.00
4795;DHT22;2411;47.060;15.064;2023-05-24T06:52:54;15.60;85.70
4795;DHT22;2411;47.060;15.064;2023-05-24T06:55:21;15.70;78.30
4795;DHT22;2411;47.060;15.064;2023-05-24T06:57:49;15.60;74.20
4795;DHT22;2411;47.060;15.064;2023-05-24T07:00:16;15.80;72.20
4795;DHT22;2411;47.060;15.064;2023-05-24T07:02:44;15.90;70.50
4795;DHT22;2411;47.060;15.064;2023-05-24T07:05:12;15.90;55.70
4795;DHT22;2411;47.060;15.064;2023-05-24T07:07:42;16.10;57.80
4795;DHT22;2411;47.060;15.064;2023-05-24T07:10:10;16.10;57.00
4795;DHT22;2411;47.060;15.064;2023-05-24T07:12:38;16.20;59.60
4795;DHT22;2411;47.060;15.064;2023-05-24T07:15:06;16.30;58.60
4795;DHT22;2411;47.060;15.064;2023-05-24T07:17:36;16.30;54.60
4795;DHT22;2411;47.060;15.064;2023-05-24T07:20:03;16.40;52.10
4795;DHT22;2411;47.060;15.064;2023-05-24T07:22:36;16.40;53.60
4795;DHT22;2411;47.060;15.064;2023-05-24T07:25:04;16.40;55.90
4795;DHT22;2411;47.060;15.064;2023-05-24T07:27:31;16.60;58.80
4795;DHT22;2411;47.060;15.064;2023-05-24T07:29:59;16.40;56.80
4795;DHT22;2411;47.060;15.064;2023-05-24T07:32:26;16.40;54.30
4795;DHT22;2411;47.060;15.064;2023-05-24T07:34:53;16.20;50.00
4795;DHT22;2411;47.060;15.064;2023-05-24T07:37:21;16.10;53.50
4795;DHT22;2411;47.060;15.064;2023-05-24T07:39:51;16.00;55.00
4795;DHT22;2411;47.060;15.064;2023-05-24T07:42:18;16.00;55.50
4795;DHT22;2411;47.060;15.064;2023-05-24T07:44:47;16.10;53.80
4795;DHT22;2411;47.060;15.064;2023-05-24T07:47:14;16.10;56.00
4795;DHT22;2411;47.060;15.064;2023-05-24T07:49:42;16.10;55.10
4795;DHT22;2411;47.060;15.064;2023-05-24T07:52:09;16.00;55.90
4795;DHT22;2411;47.060;15.064;2023-05-24T07:54:36;16.00;56.60
4795;DHT22;2411;47.060;15.064;2023-05-24T07:57:04;15.90;54.90
4795;DHT22;2411;47.060;15.064;2023-05-24T07:59:35;15.90;58.00
4795;DHT22;2411;47.060;15.064;2023-05-24T08:02:02;15.90;57.20
4795;DHT22;2411;47.060;15.064;2023-05-24T08:04:31;16.00;61.10
4795;DHT22;2411;47.060;15.064;2023-05-24T08:07:01;16.10;58.80
4795;DHT22;2411;47.060;15.064;2023-05-24T08:09:30;16.00;60.10
4795;DHT22;2411;47.060;15.064;2023-05-24T08:12:04;15.90;62.50
4795;DHT22;2411;47.060;15.064;2023-05-24T08:14:32;15.90;57.90
4795;DHT22;2411;47.060;15.064;2023-05-24T08:16:59;15.80;56.90
4795;DHT22;2411;47.060;15.064;2023-05-24T08:19:27;15.80;62.70
4795;DHT22;2411;47.060;15.064;2023-05-24T08:21:54;15.80;60.10
4795;DHT22;2411;47.060;15.064;2023-05-24T08:24:23;15.80;56.60
4795;DHT22;2411;47.060;15.064;2023-05-24T08:26:50;15.80;60.60
4795;DHT22;2411;47.060;15.064;2023-05-24T08:29:18;15.80;58.30
4795;DHT22;2411;47.060;15.064;2023-05-24T08:31:46;15.70;62.40
4795;DHT22;2411;47.060;15.064;2023-05-24T08:34:14;15.80;62.40
4795;DHT22;2411;47.060;15.064;2023-05-24T08:36:41;15.90;65.10
4795;DHT22;2411;47.060;15.064;2023-05-24T08:39:09;16.00;58.00
4795;DHT22;2411;47.060;15.064;2023-05-24T08:41:37;16.10;60.80
4795;DHT22;2411;47.060;15.064;2023-05-24T08:44:05;16.10;61.20
4795;DHT22;2411;47.060;15.064;2023-05-24T08:46:37;16.10;55.60
4795;DHT22;2411;47.060;15.064;2023-05-24T08:49:05;16.00;54.80
4795;DHT22;2411;47.060;15.064;2023-05-24T08:51:35;15.80;56.50
4795;DHT22;2411;47.060;15.064;2023-05-24T08:54:05;15.70;57.90
4795;DHT22;2411;47.060;15.064;2023-05-24T08:56:33;15.60;60.00
4795;DHT22;2411;47.060;15.064;2023-05-24T08:59:00;15.60;65.20
4795;DHT22;2411;47.060;15.064;2023-05-24T09:01:29;15.60;58.30
4795;DHT22;2411;47.060;15.064;2023-05-24T09:04:00;15.50;65.30
4795;DHT22;2411;47.060;15.064;2023-05-24T09:06:28;15.50;65.30
4795;DHT22;2411;47.060;15.064;2023-05-24T09:08:57;15.40;62.80
4795;DHT22;2411;47.060;15.064;2023-05-24T09:11:26;15.50;65.50
4795;DHT22;2411;47.060;15.064;2023-05-24T09:13:55;15.30;67.70
4795;DHT22;2411;47.060;15.064;2023-05-24T09:16:23;15.30;74.30
4795;DHT22;2411;47.060;15.064;2023-05-24T09:18:50;15.30;72.00
4795;DHT22;2411;47.060;15.064;2023-05-24T09:21:18;15.20;74.70
4795;DHT22;2411;47.060;15.064;2023-05-24T09:23:46;15.20;75.10
4795;DHT22;2411;47.060;15.064;2023-05-24T09:26:14;15.10;68.80
4795;DHT22;2411;47.060;15.064;2023-05-24T09:28:41;15.10;78.00
4795;DHT22;2411;47.060;15.064;2023-05-24T09:31:10;15.00;71.30
4795;DHT22;2411;47.060;15.064;2023-05-24T09:33:38;15.10;66.00
4795;DHT22;2411;47.060;15.064;2023-05-24T09:36:06;15.10;63.70
4795;DHT22;2411;47.060;15.064;2023-05-24T09:38:33;15.00;65.80
4795;DHT22;2411;47.060;15.064;2023-05-24T09:41:04;15.00;64.50
4795;DHT22;2411;47.060;15.064;2023-05-24T09:43:34;15.00;62.40
4795;DHT22;2411;47.060;15.064;2023-05-24T09:46:16;15.00;65.00
4795;DHT22;2411;47.060;15.064;2023-05-24T09:48:57;14.90;68.40
4795;DHT22;2411;47.060;15.064;2023-05-24T09:51:25;15.00;69.20
4795;DHT22;2411;47.060;15.064;2023-05-24T09:53:56;14.90;66.00
4795;DHT22;2411;47.060;15.064;2023-05-24T09:56:23;15.00;70.20
4795;DHT22;2411;47.060;15.064;2023-05-24T09:58:51;15.00;66.60
4795;DHT22;2411;47.060;15.064;2023-05-24T10:01:22;14.90;62.60
4795;DHT22;2411;47.060;15.064;2023-05-24T10:03:55;14.90;66.10
4795;DHT22;2411;47.060;15.064;2023-05-24T10:06:24;14.80;61.00
4795;DHT22;2411;47.060;15.064;2023-05-24T10:08:51;14.80;65.60
4795;DHT22;2411;47.060;15.064;2023-05-24T10:11:20;14.70;67.30
4795;DHT22;2411;47.060;15.064;2023-05-24T10:13:48;14.70;66.60
4795;DHT22;2411;47.060;15.064;2023-05-24T10:16:15;14.60;71.20
4795;DHT22;2411;47.060;15.064;2023-05-24T10:18:43;14.60;77.30
4795;DHT22;2411;47.060;15.064;2023-05-24T10:21:10;14.60;89.40
4795;DHT22;2411;47.060;15.064;2023-05-24T10:23:38;14.60;92.30
4795;DHT22;2411;47.060;15.064;2023-05-24T10:26:09;14.60;99.10
4795;DHT22;2411;47.060;15.064;2023-05-24T10:28:46;14.60;97.60
4795;DHT22;2411;47.060;15.064;2023-05-24T10:31:20;14.70;97.30
4795;DHT22;2411;47.060;15.064;2023-05-24T10:33:50;14.60;99.90
4795;DHT22;2411;47.060;15.064;2023-05-24T10:36:18;14.60;99.90
4795;DHT22;2411;47.060;15.064;2023-05-24T10:38:45;14.60;99.90
4795;DHT22;2411;47.060;15.064;2023-05-24T10:41:13;14.70;99.90
4795;DHT22;2411;47.060;15.064;2023-05-24T10:43:44;14.70;99.90
4795;DHT22;2411;47.060;15.064;2023-05-24T10:46:32;14.70;99.90
4795;DHT22;2411;47.060;15.064;2023-05-24T10:49:00;14.80;99.90
4795;DHT22;2411;47.060;15.064;2023-05-24T10:54:18;14.80;99.90
4795;DHT22;2411;47.060;15.064;2023-05-24T10:56:48;14.70;88.20
4795;DHT22;2411;47.060;15.064;2023-05-24T10:59:22;14.70;92.10
4795;DHT22;2411;47.060;15.064;2023-05-24T11:01:57;14.70;88.50
4795;DHT22;2411;47.060;15.064;2023-05-24T11:04:26;14.60;81.50
4795;DHT22;2411;47.060;15.064;2023-05-24T11:07:04;14.60;78.20
4795;DHT22;2411;47.060;15.064;2023-05-24T11:09:32;14.60;71.10
4795;DHT22;2411;47.060;15.064;2023-05-24T11:12:02;14.60;77.20
4795;DHT22;2411;47.060;15.064;2023-05-24T11:14:38;14.70;85.90
4795;DHT22;2411;47.060;15.064;2023-05-24T11:17:08;14.70;91.50
4795;DHT22;2411;47.060;15.064;2023-05-24T11:19:45;14.60;88.60
4795;DHT22;2411;47.060;15.064;2023-05-24T11:22:13;14.70;91.90
4795;DHT22;2411;47.060;15.064;2023-05-24T11:24:41;14.80;91.80
4795;DHT22;2411;47.060;15.064;2023-05-24T11:27:11;14.70;93.90
4795;DHT22;2411;47.060;15.064;2023-05-24T11:29:44;14.70;91.90
4795;DHT22;2411;47.060;15.064;2023-05-24T11:32:19;14.70;85.70
4795;DHT22;2411;47.060;15.064;2023-05-24T11:34:48;14.70;75.90
4795;DHT22;2411;47.060;15.064;2023-05-24T11:37:16;14.70;75.10
4795;DHT22;2411;47.060;15.064;2023-05-24T11:39:50;14.70;81.90
4795;DHT22;2411;47.060;15.064;2023-05-24T11:42:20;14.70;80.10
4795;DHT22;2411;47.060;15.064;2023-05-24T11:44:50;14.80;70.60
4795;DHT22;2411;47.060;15.064;2023-05-24T11:47:19;14.80;66.30
4795;DHT22;2411;47.060;15.064;2023-05-24T11:50:06;14.70;65.40
4795;DHT22;2411;47.060;15.064;2023-05-24T11:52:52;14.60;62.40
4795;DHT22;2411;47.060;15.064;2023-05-24T11:55:38;14.50;58.70
4795;DHT22;2411;47.060;15.064;2023-05-24T11:58:51;14.60;65.00
4795;DHT22;2411;47.060;15.064;2023-05-24T12:01:25;14.60;55.00
4795;DHT22;2411;47.060;15.064;2023-05-24T12:03:53;14.60;59.00
4795;DHT22;2411;47.060;15.064;2023-05-24T12:06:21;14.60;75.80
4795;DHT22;2411;47.060;15.064;2023-05-24T12:08:49;14.60;75.30
4795;DHT22;2411;47.060;15.064;2023-05-24T12:11:16;14.60;85.50
4795;DHT22;2411;47.060;15.064;2023-05-24T12:13:44;14.60;82.80
4795;DHT22;2411;47.060;15.064;2023-05-24T12:16:11;14.70;85.80
4795;DHT22;2411;47.060;15.064;2023-05-24T12:18:40;14.60;86.50
4795;DHT22;2411;47.060;15.064;2023-05-24T12:21:29;14.80;88.90
4795;DHT22;2411;47.060;15.064;2023-05-24T12:24:24;14.80;88.50
4795;DHT22;2411;47.060;15.064;2023-05-24T12:26:56;14.80;83.20
4795;DHT22;2411;47.060;15.064;2023-05-24T12:29:23;14.80;83.50
4795;DHT22;2411;47.060;15.064;2023-05-24T12:31:51;14.70;76.80
4795;DHT22;2411;47.060;15.064;2023-05-24T12:34:20;14.60;79.40
4795;DHT22;2411;47.060;15.064;2023-05-24T12:36:47;14.60;80.90
4795;DHT22;2411;47.060;15.064;2023-05-24T12:39:19;14.50;77.80
4795;DHT22;2411;47.060;15.064;2023-05-24T12:41:54;14.60;85.60
4795;DHT22;2411;47.060;15.064;2023-05-24T12:44:40;14.70;85.60
4795;DHT22;2411;47.060;15.064;2023-05-24T12:47:08;14.70;90.60
4795;DHT22;2411;47.060;15.064;2023-05-24T12:49:36;14.70;83.90
4795;DHT22;2411;47.060;15.064;2023-05-24T12:52:03;14.70;80.10
4795;DHT22;2411;47.060;15.064;2023-05-24T12:54:31;14.60;82.50
4795;DHT22;2411;47.060;15.064;2023-05-24T12:56:58;14.60;80.50
4795;DHT22;2411;47.060;15.064;2023-05-24T12:59:27;14.60;75.60
4795;DHT22;2411;47.060;15.064;2023-05-24T13:01:55;14.60;72.90
4795;DHT22;2411;47.060;15.064;2023-05-24T13:04:23;14.60;78.60
4795;DHT22;2411;47.060;15.064;2023-05-24T13:06:52;14.50;98.20
4795;DHT22;2411;47.060;15.064;2023-05-24T13:09:20;14.60;84.40
4795;DHT22;2411;47.060;15.064;2023-05-24T13:11:50;14.60;85.90
4795;DHT22;2411;47.060;15.064;2023-05-24T13:14:18;14.50;84.60
4795;DHT22;2411;47.060;15.064;2023-05-24T13:16:47;14.50;88.40
4795;DHT22;2411;47.060;15.064;2023-05-24T13:19:15;14.50;88.20
4795;DHT22;2411;47.060;15.064;2023-05-24T13:21:43;14.50;84.80
4795;DHT22;2411;47.060;15.064;2023-05-24T13:24:13;14.50;75.40
4795;DHT22;2411;47.060;15.064;2023-05-24T13:26:42;14.50;82.40
4795;DHT22;2411;47.060;15.064;2023-05-24T13:29:09;14.50;89.20
4795;DHT22;2411;47.060;15.064;2023-05-24T13:31:40;14.50;94.00
4795;DHT22;2411;47.060;15.064;2023-05-24T13:34:08;14.50;80.90
4795;DHT22;2411;47.060;15.064;2023-05-24T13:36:37;14.60;90.00
4795;DHT22;2411;47.060;15.064;2023-05-24T13:39:05;14.60;91.50
4795;DHT22;2411;47.060;15.064;2023-05-24T13:41:39;14.50;85.70
4795;DHT22;2411;47.060;15.064;2023-05-24T13:44:06;14.50;77.10
4795;DHT22;2411;47.060;15.064;2023-05-24T13:46:34;14.40;89.70
4795;DHT22;2411;47.060;15.064;2023-05-24T13:49:03;14.40;91.00
4795;DHT22;2411;47.060;15.064;2023-05-24T13:51:31;14.40;91.30
4795;DHT22;2411;47.060;15.064;2023-05-24T13:53:59;14.40;90.00
4795;DHT22;2411;47.060;15.064;2023-05-24T13:56:27;14.40;90.50
4795;DHT22;2411;47.060;15.064;2023-05-24T13:59:00;14.40;94.20
4795;DHT22;2411;47.060;15.064;2023-05-24T14:01:28;14.50;96.90
4795;DHT22;2411;47.060;15.064;2023-05-24T14:03:57;14.50;98.00
4795;DHT22;2411;47.060;15.064;2023-05-24T14:06:24;14.60;99.90
4795;DHT22;2411;47.060;15.064;2023-05-24T14:08:52;14.60;99.90
4795;DHT22;2411;47.060;15.064;2023-05-24T14:11:19;14.70;99.90
4795;DHT22;2411;47.060;15.064;2023-05-24T14:13:48;14.80;99.90
4795;DHT22;2411;47.060;15.064;2023-05-24T14:16:18;14.80;94.20
4795;DHT22;2411;47.060;15.064;2023-05-24T14:18:46;14.80;96.60
4795;DHT22;2411;47.060;15.064;2023-05-24T14:21:18;14.80;94.00
4795;DHT22;2411;47.060;15.064;2023-05-24T14:23:48;14.80;99.90
4795;DHT22;2411;47.060;15.064;2023-05-24T14:26:17;14.80;99.90
4795;DHT22;2411;47.060;15.064;2023-05-24T14:28:45;14.70;99.90
4795;DHT22;2411;47.060;15.064;2023-05-24T14:31:12;14.60;99.90
4795;DHT22;2411;47.060;15.064;2023-05-24T14:33:39;14.60;99.90
4795;DHT22;2411;47.060;15.064;2023-05-24T14:36:07;14.50;99.90
4795;DHT22;2411;47.060;15.064;2023-05-24T14:38:35;14.50;99.90
4795;DHT22;2411;47.060;15.064;2023-05-24T14:41:02;14.50;99.90
4795;DHT22;2411;47.060;15.064;2023-05-24T14:43:29;14.60;99.90
4795;DHT22;2411;47.060;15.064;2023-05-24T14:45:57;14.60;99.90
4795;DHT22;2411;47.060;15.064;2023-05-24T14:48:24;14.70;99.90
4795;DHT22;2411;47.060;15.064;2023-05-24T14:50:51;14.70;99.90
4795;DHT22;2411;47.060;15.064;2023-05-24T14:53:19;14.70;99.90
4795;DHT22;2411;47.060;15.064;2023-05-24T14:55:46;14.80;99.90
4795;DHT22;2411;47.060;15.064;2023-05-24T14:58:14;14.80;99.90
4795;DHT22;2411;47.060;15.064;2023-05-24T15:00:41;14.90;99.90
4795;DHT22;2411;47.060;15.064;2023-05-24T15:03:10;14.90;99.90
4795;DHT22;2411;47.060;15.064;2023-05-24T15:05:39;15.00;99.90
4795;DHT22;2411;47.060;15.064;2023-05-24T15:08:09;15.00;99.90
4795;DHT22;2411;47.060;15.064;2023-05-24T15:10:39;15.00;99.90
4795;DHT22;2411;47.060;15.064;2023-05-24T15:13:09;15.00;99.90
4795;DHT22;2411;47.060;15.064;2023-05-24T15:15:37;15.00;99.90
4795;DHT22;2411;47.060;15.064;2023-05-24T15:18:05;14.90;99.90
4795;DHT22;2411;47.060;15.064;2023-05-24T15:20:33;14.90;99.90
4795;DHT22;2411;47.060;15.064;2023-05-24T15:23:02;14.90;99.90
4795;DHT22;2411;47.060;15.064;2023-05-24T15:25:29;14.80;99.90
4795;DHT22;2411;47.060;15.064;2023-05-24T15:27:57;14.90;99.90
4795;DHT22;2411;47.060;15.064;2023-05-24T15:30:24;14.80;99.90
4795;DHT22;2411;47.060;15.064;2023-05-24T15:32:51;14.70;99.90
4795;DHT22;2411;47.060;15.064;2023-05-24T15:35:19;14.70;99.90
4795;DHT22;2411;47.060;15.064;2023-05-24T15:37:46;14.70;99.90
4795;DHT22;2411;47.060;15.064;2023-05-24T15:40:14;14.60;99.90
4795;DHT22;2411;47.060;15.064;2023-05-24T15:42:42;14.60;98.80
4795;DHT22;2411;47.060;15.064;2023-05-24T15:45:10;14.60;99.90
4795;DHT22;2411;47.060;15.064;2023-05-24T15:47:37;14.60;94.20
4795;DHT22;2411;47.060;15.064;2023-05-24T15:50:07;14.60;96.20
4795;DHT22;2411;47.060;15.064;2023-05-24T15:52:35;14.50;91.70
4795;DHT22;2411;47.060;15.064;2023-05-24T15:55:05;14.50;91.80
4795;DHT22;2411;47.060;15.064;2023-05-24T15:57:33;14.50;94.80
4795;DHT22;2411;47.060;15.064;2023-05-24T16:00:01;14.50;94.90
4795;DHT22;2411;47.060;15.064;2023-05-24T16:02:28;14.50;90.40
4795;DHT22;2411;47.060;15.064;2023-05-24T16:04:56;14.50;88.20
4795;DHT22;2411;47.060;15.064;2023-05-24T16:07:24;14.50;83.90
4795;DHT22;2411;47.060;15.064;2023-05-24T16:09:51;14.40;80.80
4795;DHT22;2411;47.060;15.064;2023-05-24T16:12:19;14.20;70.40
4795;DHT22;2411;47.060;15.064;2023-05-24T16:14:46;14.20;73.70